createdAt,value
2022-10-23T04:31:52.966Z,18.03
2022-10-23T04:36:55.654Z,18.57
2022-10-23T04:41:58.464Z,18.40
2022-10-23T04:47:01.157Z,19.77
2022-10-23T04:52:04.054Z,20.80
2022-10-23T04:57:06.774Z,21.60
2022-10-23T05:02:09.512Z,21.97
2022-10-23T05:07:12.282Z,21.67
2022-10-23T05:12:15.056Z,20.67
2022-10-23T05:17:20.988Z,21.90
2022-10-23T05:22:26.073Z,19.57
2022-10-23T05:27:29.023Z,19.17
2022-10-23T05:32:33.162Z,20.23
2022-10-23T05:37:38.866Z,19.67
2022-10-23T05:42:41.864Z,21.03
2022-10-23T05:47:45.589Z,22.13
2022-10-23T05:52:49.183Z,20.73
2022-10-23T05:57:51.871Z,19.73
2022-10-23T06:02:54.553Z,18.60
2022-10-23T06:08:00.383Z,16.97
2022-10-23T06:13:03.084Z,16.30
2022-10-23T06:18:06.396Z,17.20
2022-10-23T06:23:09.394Z,14.97
2022-10-23T06:28:12.823Z,16.90
2022-10-23T06:33:17.526Z,14.63
2022-10-23T06:38:20.202Z,14.23
2022-10-23T06:43:23.146Z,13.90
2022-10-23T06:48:25.817Z,14.60
2022-10-23T06:53:28.508Z,13.93
2022-10-23T06:58:31.623Z,13.67
2022-10-23T07:03:34.854Z,12.80
2022-10-23T07:08:37.852Z,13.53
2022-10-23T07:13:41.142Z,13.83
2022-10-23T07:18:44.200Z,14.23
2022-10-23T07:23:46.918Z,14.57
2022-10-23T07:28:51.736Z,15.10
2022-10-23T07:33:54.567Z,13.67
2022-10-23T07:38:57.293Z,13.63
2022-10-23T07:44:00.060Z,14.20
2022-10-23T07:49:02.740Z,15.77
2022-10-23T07:54:05.527Z,14.50
2022-10-23T07:59:10.329Z,13.87
2022-10-23T08:04:13.033Z,16.47
2022-10-23T08:09:15.731Z,16.50
2022-10-23T08:14:18.432Z,17.13
2022-10-23T08:19:21.199Z,17.50
2022-10-23T08:24:24.081Z,18.37
2022-10-23T08:29:26.798Z,17.80
2022-10-23T08:34:29.473Z,17.47
2022-10-23T08:39:32.240Z,18.33
2022-10-23T08:45:03.155Z,17.20
2022-10-23T08:50:27.083Z,18.23
2022-10-23T08:55:43.641Z,17.40
2022-10-23T09:00:47.900Z,17.23
2022-10-23T09:06:33.458Z,15.97
2022-10-23T09:11:50.229Z,15.90
2022-10-23T09:17:16.182Z,15.03
2022-10-23T09:22:18.919Z,12.93
2022-10-23T09:27:21.863Z,11.57
2022-10-23T09:32:38.445Z,11.67
2022-10-23T09:37:46.473Z,11.73
2022-10-23T09:42:56.470Z,12.37
2022-10-23T09:48:19.488Z,11.63
2022-10-23T09:53:34.565Z,12.10
2022-10-23T09:58:52.398Z,11.67
2022-10-23T10:03:55.526Z,10.87
2022-10-23T10:09:00.660Z,9.97
2022-10-23T10:14:28.018Z,10.23
2022-10-23T10:20:01.324Z,9.50
2022-10-23T10:25:37.019Z,9.60
2022-10-23T10:31:17.388Z,8.67
2022-10-23T10:36:41.481Z,8.20
2022-10-23T10:42:01.227Z,7.60
2022-10-23T10:47:56.640Z,6.57
2022-10-23T10:53:28.886Z,6.40
2022-10-23T10:58:48.059Z,6.60
2022-10-23T11:04:16.353Z,6.07
2022-10-23T11:09:32.450Z,5.87
2022-10-23T11:14:35.811Z,5.77
2022-10-23T11:19:44.173Z,6.10
2022-10-23T11:25:14.720Z,6.03
2022-10-23T11:30:30.814Z,5.93
2022-10-23T11:36:03.899Z,5.40
2022-10-23T11:41:26.784Z,5.73
2022-10-23T11:46:38.964Z,5.33
2022-10-23T11:51:42.444Z,6.13
2022-10-23T11:57:10.109Z,6.47
2022-10-23T12:02:27.087Z,6.10
2022-10-23T12:07:38.707Z,6.00
2022-10-23T12:12:42.606Z,6.00
2022-10-23T12:17:47.088Z,6.50
2022-10-23T12:23:22.442Z,5.20
2022-10-23T12:28:39.714Z,5.23
2022-10-23T12:33:53.843Z,5.00
2022-10-23T12:38:58.720Z,5.30
2022-10-23T12:44:06.496Z,5.33
2022-10-23T12:49:18.534Z,5.27
2022-10-23T12:54:22.205Z,5.30
2022-10-23T12:59:27.552Z,5.10
2022-10-23T13:04:32.501Z,5.10
2022-10-23T13:09:45.777Z,4.90
2022-10-23T13:15:14.333Z,4.93
2022-10-23T13:20:26.399Z,4.47
2022-10-23T13:25:33.593Z,4.23
2022-10-23T13:30:46.228Z,4.40
2022-10-23T13:36:14.587Z,4.97
2022-10-23T13:41:19.703Z,3.93
2022-10-23T13:46:25.640Z,3.97
2022-10-23T13:51:31.699Z,3.63
2022-10-23T13:56:35.370Z,4.00
2022-10-23T14:01:38.630Z,3.50
2022-10-23T14:06:42.188Z,4.10
2022-10-23T14:11:45.480Z,3.73
2022-10-23T14:16:48.248Z,3.77
2022-10-23T14:21:50.903Z,3.93
2022-10-23T14:26:53.655Z,3.83
2022-10-23T14:31:56.474Z,4.00
2022-10-23T14:37:11.077Z,3.90
2022-10-23T14:42:14.731Z,3.80
2022-10-23T14:47:19.287Z,4.40
2022-10-23T14:52:22.183Z,3.97
2022-10-23T14:57:24.920Z,4.47
2022-10-23T15:02:27.608Z,5.60
2022-10-23T15:07:30.286Z,4.30
2022-10-23T15:12:34.319Z,3.80
2022-10-23T15:17:39.118Z,3.87
2022-10-23T15:22:41.987Z,4.20
2022-10-23T15:27:45.203Z,4.27
2022-10-23T15:32:48.117Z,4.13
2022-10-23T15:37:50.885Z,3.90
2022-10-23T15:42:53.571Z,4.30
2022-10-23T15:47:56.286Z,3.83
2022-10-23T15:52:59.249Z,3.70
2022-10-23T15:58:04.915Z,4.13
2022-10-23T16:03:07.622Z,4.47
2022-10-23T16:08:10.402Z,3.50
2022-10-23T16:13:13.079Z,3.53
2022-10-23T16:18:18.068Z,4.10
2022-10-23T16:23:20.748Z,4.37
2022-10-23T16:28:23.459Z,4.30
2022-10-23T16:33:26.242Z,5.60
2022-10-23T16:38:28.921Z,4.83
2022-10-23T16:43:31.653Z,5.27
2022-10-23T16:48:35.023Z,4.70
2022-10-23T16:53:38.166Z,4.90
2022-10-23T16:58:41.146Z,5.20
2022-10-23T17:03:48.301Z,4.90
2022-10-23T17:08:51.371Z,5.30
2022-10-23T17:13:59.121Z,5.87
2022-10-23T17:19:04.261Z,6.37
2022-10-23T17:24:07.698Z,6.57
2022-10-23T17:29:11.220Z,6.60
2022-10-23T17:34:16.923Z,5.90
2022-10-23T17:39:22.464Z,7.70
2022-10-23T17:44:25.487Z,7.50
2022-10-23T17:49:28.161Z,8.23
2022-10-23T17:54:30.940Z,8.30
2022-10-23T17:59:34.052Z,11.00
2022-10-23T18:04:36.744Z,11.97
2022-10-23T18:09:39.778Z,11.50
2022-10-23T18:14:42.500Z,12.37
2022-10-23T18:19:45.195Z,12.67
2022-10-23T18:24:47.929Z,11.93
2022-10-23T18:29:50.992Z,12.47
2022-10-23T18:34:53.798Z,13.07
2022-10-23T18:39:56.470Z,14.93
2022-10-23T18:44:59.163Z,35.00
2022-10-23T18:50:01.831Z,38.40
2022-10-23T18:55:06.632Z,33.87
2022-10-23T19:00:10.749Z,32.60
2022-10-23T19:05:13.493Z,33.77
2022-10-23T19:10:18.025Z,29.30
2022-10-23T19:15:20.746Z,26.80
2022-10-23T19:20:23.811Z,26.50
2022-10-23T19:25:32.281Z,20.50
2022-10-23T19:30:35.518Z,18.07
2022-10-23T19:35:38.203Z,18.13
2022-10-23T19:40:40.970Z,14.10
2022-10-23T19:45:43.663Z,15.00
2022-10-23T19:50:46.394Z,14.20
2022-10-23T19:55:49.096Z,15.77
2022-10-23T20:00:51.847Z,14.47
2022-10-23T20:05:54.591Z,15.87
2022-10-23T20:10:58.379Z,15.77
2022-10-23T20:16:01.102Z,14.47
2022-10-23T20:21:03.898Z,14.00
2022-10-23T20:26:13.711Z,14.53
2022-10-23T20:31:17.389Z,15.30
2022-10-23T20:36:26.550Z,17.13
2022-10-23T20:41:29.284Z,18.40
2022-10-23T20:46:32.142Z,17.43
2022-10-23T20:51:36.119Z,19.20
2022-10-23T20:56:39.938Z,19.13
2022-10-23T21:01:45.288Z,18.47
2022-10-23T21:07:08.794Z,17.73
2022-10-23T21:12:11.978Z,19.40
2022-10-23T21:17:17.335Z,17.47
2022-10-23T21:22:20.108Z,18.03
2022-10-23T21:27:25.641Z,19.40
2022-10-23T21:32:28.293Z,21.33
2022-10-23T21:37:31.047Z,21.13
2022-10-23T21:42:33.739Z,21.67
2022-10-23T21:47:36.596Z,21.40
2022-10-23T21:52:39.304Z,21.00
2022-10-23T21:57:41.999Z,19.77
2022-10-23T22:02:44.888Z,21.27
2022-10-23T22:07:48.132Z,20.33
2022-10-23T22:12:50.825Z,21.37
2022-10-23T22:17:53.602Z,20.80
2022-10-23T22:22:56.315Z,19.97
2022-10-23T22:27:59.322Z,22.40
2022-10-23T22:33:01.981Z,23.13
2022-10-23T22:38:04.725Z,22.57
2022-10-23T22:43:07.593Z,22.77
2022-10-23T22:48:10.284Z,22.77
2022-10-23T22:53:12.938Z,23.00
2022-10-23T22:58:15.649Z,22.03
2022-10-23T23:03:18.583Z,23.20
2022-10-23T23:08:21.318Z,21.20
2022-10-23T23:13:24.971Z,23.37
2022-10-23T23:18:27.947Z,22.33
2022-10-23T23:23:31.023Z,20.57
2022-10-23T23:28:33.925Z,20.63
